KBGD

Hutchinson County Airport

Borger, Texas, USA
METAR KBGD 191151Z AUTO 19010G17KT 10SM CLR 22/17 A2997 RMK AO2 SLP102 T02170167 10239 20217 53000
Observed Flight Rules
Sep-19 @ 11:51 UTC (an hour ago) Visual Flight Rules
Wind Visibility Clouds
190° at 10 knots
 Gusting to 17 knots
10 miles
  • Clear skies
Temperatures Readings
Current 22°C / 72°F
Dewpoint 17°C / 63°F
Humidity 73%
Altimeter 29.97" Hg
Pressure 1010.2 hPa
Elevation 927
METAR KBGD 191151Z AUTO 19010G17KT 10SM CLR 22/17 A2997 RMK AO2 SLP102 T02170167 10239 20217 53000
Observed Flight Rules
Sep-19 @ 11:51 UTC
(an hour ago)
VFR
Wind Visibility
190° at 10 knots
 Gusting to 17 knots
10 miles
Clouds
  • Clear skies
Temperature Dewpoint
22°C / 72°F 17°C / 63°F
Humidity Altimeter Pressure
73% 29.97" Hg 1010.2 hPa